Time;durP1;ratioP1;P1;durP2;ratioP2;P2;SDS_P1;SDS_P2;PMS_P1;PMS_P2;Temp;Humidity;BMP_temperature;BMP_pressure;BME280_temperature;BME280_humidity;BME280_pressure;Samples;Min_cycle;Max_cycle;Signal;HPM_P1;HPM_P2
2023/09/07 00:01:48;;;;;;;7.57;3.10;;;;;;;;;;5072850;28;20051;-79
2023/09/07 00:04:14;;;;;;;6.20;3.20;;;;;;;;;;5072727;28;20060;-78
2023/09/07 00:06:44;;;;;;;5.85;3.20;;;;;;;;;;5072660;28;20488;-79
2023/09/07 00:09:11;;;;;;;4.95;3.20;;;;;;;;;;5071280;28;20044;-79
2023/09/07 00:11:38;;;;;;;9.02;3.47;;;;;;;;;;5061214;28;20378;-80
2023/09/07 00:14:04;;;;;;;6.82;3.38;;;;;;;;;;5051468;28;20077;-80
2023/09/07 00:16:37;;;;;;;5.85;3.30;;;;;;;;;;5050005;28;20045;-79
2023/09/07 00:19:04;;;;;;;5.60;3.20;;;;;;;;;;5050970;28;20049;-80
2023/09/07 00:21:30;;;;;;;5.28;3.30;;;;;;;;;;5051223;28;20045;-80
2023/09/07 00:23:56;;;;;;;4.78;3.03;;;;;;;;;;5051190;28;20126;-80
2023/09/07 00:26:22;;;;;;;6.68;3.50;;;;;;;;;;5050957;28;20053;-80
2023/09/07 00:28:48;;;;;;;4.57;3.35;;;;;;;;;;5044916;28;20060;-80
2023/09/07 00:31:14;;;;;;;7.90;3.40;;;;;;;;;;5070365;28;20040;-78
2023/09/07 00:33:40;;;;;;;9.02;3.60;;;;;;;;;;5052848;28;20044;-79
2023/09/07 00:36:06;;;;;;;6.30;3.42;;;;;;;;;;5071315;28;20109;-79
2023/09/07 00:38:32;;;;;;;8.10;3.45;;;;;;;;;;5055319;28;20374;-80
2023/09/07 00:40:58;;;;;;;5.80;3.65;;;;;;;;;;5055447;28;20052;-80
2023/09/07 00:43:27;;;;;;;6.55;3.58;;;;;;;;;;5061609;28;20400;-80
2023/09/07 00:45:54;;;;;;;7.93;3.42;;;;;;;;;;5076384;28;20044;-80
2023/09/07 00:48:20;;;;;;;8.20;3.63;;;;;;;;;;5058742;28;20451;-80
2023/09/07 00:50:46;;;;;;;6.13;3.40;;;;;;;;;;5056647;28;20044;-80
2023/09/07 00:53:12;;;;;;;7.70;3.40;;;;;;;;;;5061578;28;20036;-79
2023/09/07 00:55:39;;;;;;;10.15;3.45;;;;;;;;;;5066397;28;20055;-80
2023/09/07 00:58:05;;;;;;;7.20;3.63;;;;;;;;;;5073723;28;20127;-79
2023/09/07 01:00:32;;;;;;;5.82;3.22;;;;;;;;;;5056298;28;20086;-80
2023/09/07 01:02:58;;;;;;;9.68;3.60;;;;;;;;;;5061633;28;20041;-80
2023/09/07 01:05:27;;;;;;;6.13;3.45;;;;;;;;;;5075574;28;20070;-80
2023/09/07 01:07:58;;;;;;;9.10;3.70;;;;;;;;;;5064258;28;20055;-80
2023/09/07 01:10:24;;;;;;;10.18;3.30;;;;;;;;;;5054693;28;20047;-79
2023/09/07 01:12:50;;;;;;;8.48;3.40;;;;;;;;;;5063912;28;20036;-80
2023/09/07 01:15:16;;;;;;;7.82;3.38;;;;;;;;;;5057255;28;20060;-78
2023/09/07 01:17:43;;;;;;;8.18;3.45;;;;;;;;;;5056225;28;20044;-78
2023/09/07 01:20:10;;;;;;;6.05;3.50;;;;;;;;;;5075660;28;20044;-79
2023/09/07 01:22:37;;;;;;;7.65;3.97;;;;;;;;;;5071781;28;20446;-79
2023/09/07 01:25:04;;;;;;;7.50;4.00;;;;;;;;;;5056651;28;20052;-78
2023/09/07 01:27:30;;;;;;;6.78;4.10;;;;;;;;;;5054507;28;20048;-79
2023/09/07 01:29:57;;;;;;;8.93;3.80;;;;;;;;;;5069616;28;20052;-79
2023/09/07 01:32:25;;;;;;;5.78;3.95;;;;;;;;;;5071382;28;20036;-79
2023/09/07 01:34:52;;;;;;;6.07;3.63;;;;;;;;;;5056323;28;20049;-79
2023/09/07 01:37:18;;;;;;;6.65;4.00;;;;;;;;;;5055470;28;20095;-78
2023/09/07 01:39:44;;;;;;;6.95;3.75;;;;;;;;;;5064092;28;20049;-75
2023/09/07 01:42:10;;;;;;;9.13;4.18;;;;;;;;;;5062574;28;20063;-75
2023/09/07 01:44:38;;;;;;;7.88;3.60;;;;;;;;;;5070437;28;20064;-78
2023/09/07 01:47:04;;;;;;;9.20;4.05;;;;;;;;;;5052915;28;20060;-79
2023/09/07 01:49:30;;;;;;;7.78;4.13;;;;;;;;;;5059754;28;20052;-80
2023/09/07 01:51:56;;;;;;;10.27;4.30;;;;;;;;;;5075564;28;20043;-79
2023/09/07 01:54:22;;;;;;;5.88;3.90;;;;;;;;;;5072267;28;20044;-79
2023/09/07 01:56:48;;;;;;;7.82;4.10;;;;;;;;;;5062849;28;20440;-77
2023/09/07 01:59:14;;;;;;;7.78;3.90;;;;;;;;;;5059502;28;20040;-78
2023/09/07 02:01:40;;;;;;;6.90;4.25;;;;;;;;;;5065898;28;20099;-78
2023/09/07 02:04:07;;;;;;;6.85;4.35;;;;;;;;;;5054010;28;20044;-78
2023/09/07 02:06:33;;;;;;;8.65;4.30;;;;;;;;;;5050928;28;20120;-78
2023/09/07 02:08:59;;;;;;;8.27;4.15;;;;;;;;;;5053479;28;20055;-78
2023/09/07 02:11:25;;;;;;;7.47;4.07;;;;;;;;;;5069901;28;20048;-79
2023/09/07 02:13:51;;;;;;;6.45;4.45;;;;;;;;;;5071400;28;20131;-78
2023/09/07 02:16:18;;;;;;;5.85;4.00;;;;;;;;;;5053949;28;20437;-78
2023/09/07 02:18:45;;;;;;;6.60;4.10;;;;;;;;;;5062623;28;20049;-78
2023/09/07 02:21:12;;;;;;;9.30;4.45;;;;;;;;;;5057834;28;20190;-78
2023/09/07 02:23:38;;;;;;;10.15;4.35;;;;;;;;;;5052977;28;20100;-78
2023/09/07 02:26:04;;;;;;;6.03;3.97;;;;;;;;;;5059708;28;20040;-78
2023/09/07 02:28:30;;;;;;;8.75;4.18;;;;;;;;;;5073168;28;20080;-78
2023/09/07 02:31:03;;;;;;;8.93;4.22;;;;;;;;;;5073166;28;20079;-78
2023/09/07 02:33:29;;;;;;;7.80;4.45;;;;;;;;;;5047089;28;20175;-79
2023/09/07 02:35:55;;;;;;;7.93;4.30;;;;;;;;;;5052926;28;20052;-79
2023/09/07 02:38:21;;;;;;;6.95;4.55;;;;;;;;;;5053107;28;20041;-80
2023/09/07 02:40:48;;;;;;;7.57;4.63;;;;;;;;;;5070290;28;20128;-79
2023/09/07 02:43:14;;;;;;;8.50;4.60;;;;;;;;;;5053365;28;20052;-79
2023/09/07 02:45:40;;;;;;;7.60;4.55;;;;;;;;;;5054838;28;20124;-79
2023/09/07 02:48:06;;;;;;;6.85;4.80;;;;;;;;;;5055244;28;20037;-80
2023/09/07 02:50:33;;;;;;;5.78;4.38;;;;;;;;;;5061676;28;20136;-79
2023/09/07 02:53:00;;;;;;;7.65;4.80;;;;;;;;;;5073894;28;20459;-80
2023/09/07 02:55:26;;;;;;;8.88;4.60;;;;;;;;;;5069252;28;20047;-79
2023/09/07 02:57:53;;;;;;;6.93;4.70;;;;;;;;;;5054220;28;20116;-80
2023/09/07 03:00:19;;;;;;;8.10;4.97;;;;;;;;;;5053060;28;20128;-79
2023/09/07 03:02:45;;;;;;;10.70;4.88;;;;;;;;;;5054149;28;20068;-79
2023/09/07 03:05:11;;;;;;;7.20;4.50;;;;;;;;;;5053817;28;20045;-79
2023/09/07 03:07:39;;;;;;;6.03;4.82;;;;;;;;;;5066391;28;20072;-79
2023/09/07 03:10:05;;;;;;;7.97;5.00;;;;;;;;;;5073812;28;20084;-80
2023/09/07 03:12:31;;;;;;;8.52;5.13;;;;;;;;;;5072068;28;20180;-79
2023/09/07 03:14:57;;;;;;;7.47;5.10;;;;;;;;;;5073488;28;20522;-79
2023/09/07 03:17:23;;;;;;;8.70;4.55;;;;;;;;;;5060384;28;20330;-79
2023/09/07 03:19:49;;;;;;;6.20;4.70;;;;;;;;;;5052564;28;20117;-79
2023/09/07 03:22:17;;;;;;;9.15;4.90;;;;;;;;;;5053319;28;20452;-79
2023/09/07 03:24:43;;;;;;;11.23;5.43;;;;;;;;;;5064230;28;20137;-79
2023/09/07 03:27:10;;;;;;;8.55;5.25;;;;;;;;;;5070581;28;20044;-79
2023/09/07 03:29:37;;;;;;;7.20;5.47;;;;;;;;;;5059599;28;20056;-79
2023/09/07 03:32:03;;;;;;;7.85;4.70;;;;;;;;;;5067914;28;20047;-78
2023/09/07 03:34:29;;;;;;;8.05;5.30;;;;;;;;;;5053826;28;20088;-78
2023/09/07 03:36:55;;;;;;;6.57;4.80;;;;;;;;;;5052940;28;20040;-78
2023/09/07 03:39:22;;;;;;;8.02;5.30;;;;;;;;;;5061278;28;20052;-78
2023/09/07 03:41:48;;;;;;;8.70;5.22;;;;;;;;;;5072649;28;20499;-78
2023/09/07 03:44:14;;;;;;;7.03;5.40;;;;;;;;;;5072843;28;20385;-78
2023/09/07 03:46:40;;;;;;;8.73;5.70;;;;;;;;;;5054635;28;20048;-79
2023/09/07 03:49:06;;;;;;;11.23;5.45;;;;;;;;;;5066535;28;20090;-78
2023/09/07 03:51:32;;;;;;;9.13;5.72;;;;;;;;;;5065274;28;20083;-78
2023/09/07 03:53:59;;;;;;;9.13;5.63;;;;;;;;;;5059053;28;20064;-78
2023/09/07 03:56:25;;;;;;;10.90;6.28;;;;;;;;;;5057445;28;20580;-79
2023/09/07 03:58:51;;;;;;;8.38;4.90;;;;;;;;;;5072337;28;20128;-78
2023/09/07 04:01:17;;;;;;;8.82;5.63;;;;;;;;;;5066428;28;20130;-78
2023/09/07 04:03:43;;;;;;;7.05;6.05;;;;;;;;;;5052561;28;20073;-78
2023/09/07 04:06:09;;;;;;;9.73;5.97;;;;;;;;;;5050933;28;20041;-78
2023/09/07 04:08:35;;;;;;;8.25;6.20;;;;;;;;;;5052887;28;20091;-78
2023/09/07 04:11:05;;;;;;;7.90;5.95;;;;;;;;;;5050893;28;20120;-77
2023/09/07 04:13:31;;;;;;;7.63;6.13;;;;;;;;;;5056581;28;20045;-77
2023/09/07 04:15:57;;;;;;;8.13;6.05;;;;;;;;;;5070962;28;20102;-77
2023/09/07 04:18:27;;;;;;;6.85;6.00;;;;;;;;;;5069313;28;20046;-77
2023/09/07 04:20:53;;;;;;;7.63;5.82;;;;;;;;;;5070907;28;20507;-77
2023/09/07 04:23:19;;;;;;;9.25;5.90;;;;;;;;;;5072632;28;20080;-76
2023/09/07 04:25:45;;;;;;;9.68;6.15;;;;;;;;;;5070998;28;20522;-76
2023/09/07 04:28:11;;;;;;;10.20;6.03;;;;;;;;;;5072339;28;20139;-78
2023/09/07 04:30:40;;;;;;;8.75;6.03;;;;;;;;;;5071366;28;20399;-78
2023/09/07 04:33:06;;;;;;;8.82;6.28;;;;;;;;;;5058047;28;20045;-77
2023/09/07 04:35:33;;;;;;;9.13;6.32;;;;;;;;;;5058754;28;20055;-78
2023/09/07 04:37:59;;;;;;;10.50;6.70;;;;;;;;;;5072290;28;20040;-77
2023/09/07 04:40:25;;;;;;;8.80;6.15;;;;;;;;;;5070687;28;20552;-78
2023/09/07 04:42:51;;;;;;;8.85;6.38;;;;;;;;;;5072238;28;20105;-78
2023/09/07 04:45:18;;;;;;;7.43;6.25;;;;;;;;;;5070006;28;20051;-77
2023/09/07 04:47:44;;;;;;;6.93;5.82;;;;;;;;;;5070087;28;20044;-77
2023/09/07 04:50:10;;;;;;;11.07;5.95;;;;;;;;;;5066235;28;20141;-77
2023/09/07 04:52:36;;;;;;;9.00;6.15;;;;;;;;;;5070120;28;20040;-77
2023/09/07 04:55:03;;;;;;;7.43;6.03;;;;;;;;;;5064374;28;20052;-77
2023/09/07 04:57:31;;;;;;;9.07;6.20;;;;;;;;;;5068516;28;20041;-77
2023/09/07 04:59:57;;;;;;;9.07;6.43;;;;;;;;;;5068269;28;20060;-77
2023/09/07 05:02:23;;;;;;;10.82;5.95;;;;;;;;;;5056524;28;20037;-77
2023/09/07 05:04:50;;;;;;;10.25;5.93;;;;;;;;;;5070783;28;20045;-76
2023/09/07 05:07:16;;;;;;;9.05;6.43;;;;;;;;;;5069293;28;20059;-77
2023/09/07 05:09:42;;;;;;;11.95;7.20;;;;;;;;;;5054102;28;20044;-77
2023/09/07 05:12:08;;;;;;;9.15;6.57;;;;;;;;;;5062139;28;20523;-77
2023/09/07 05:14:34;;;;;;;7.85;6.20;;;;;;;;;;5070600;28;20049;-77
2023/09/07 05:17:00;;;;;;;8.45;6.70;;;;;;;;;;5052998;28;20198;-78
2023/09/07 05:19:26;;;;;;;7.60;6.40;;;;;;;;;;5068255;28;20493;-77
2023/09/07 05:21:52;;;;;;;10.27;6.35;;;;;;;;;;5051465;28;20481;-77
2023/09/07 05:24:18;;;;;;;8.88;6.53;;;;;;;;;;5048216;28;20393;-77
2023/09/07 05:26:44;;;;;;;9.50;6.32;;;;;;;;;;5057791;28;20049;-77
2023/09/07 05:29:11;;;;;;;7.78;6.18;;;;;;;;;;5069185;28;20048;-76
2023/09/07 05:31:37;;;;;;;8.35;6.10;;;;;;;;;;5064409;28;20059;-77
2023/09/07 05:34:03;;;;;;;9.35;6.63;;;;;;;;;;5054788;28;20094;-77
2023/09/07 05:36:30;;;;;;;10.50;6.80;;;;;;;;;;5053678;28;20477;-77
2023/09/07 05:38:56;;;;;;;10.43;6.45;;;;;;;;;;5051847;28;20519;-77
2023/09/07 05:41:22;;;;;;;8.20;6.18;;;;;;;;;;5052291;28;20405;-77
2023/09/07 05:43:49;;;;;;;10.38;6.65;;;;;;;;;;5057573;28;20053;-77
2023/09/07 05:46:15;;;;;;;9.40;6.60;;;;;;;;;;5074982;28;20055;-77
2023/09/07 05:48:41;;;;;;;9.18;6.40;;;;;;;;;;5071397;28;20408;-77
2023/09/07 05:51:07;;;;;;;11.20;6.40;;;;;;;;;;5054596;28;20407;-78
2023/09/07 05:53:33;;;;;;;11.32;7.20;;;;;;;;;;5054083;28;20045;-78
2023/09/07 05:55:59;;;;;;;11.30;6.30;;;;;;;;;;5053780;28;20182;-78
2023/09/07 05:58:25;;;;;;;12.07;6.97;;;;;;;;;;5054456;28;20481;-78
2023/09/07 06:00:51;;;;;;;15.93;7.03;;;;;;;;;;5053323;28;20091;-78
2023/09/07 06:03:17;;;;;;;10.85;7.00;;;;;;;;;;5054528;28;20045;-78
2023/09/07 06:05:44;;;;;;;12.77;6.80;;;;;;;;;;5055361;28;20048;-80
2023/09/07 06:08:10;;;;;;;15.93;6.97;;;;;;;;;;5060050;28;20390;-76
2023/09/07 06:10:36;;;;;;;12.38;7.05;;;;;;;;;;5077610;28;20067;-80
2023/09/07 06:13:02;;;;;;;12.95;6.88;;;;;;;;;;5075470;28;20045;-80
2023/09/07 06:15:29;;;;;;;20.08;7.18;;;;;;;;;;5075215;28;20041;-81
2023/09/07 06:17:55;;;;;;;11.82;6.47;;;;;;;;;;5073483;28;20098;-80
2023/09/07 06:20:21;;;;;;;11.90;6.70;;;;;;;;;;5074830;28;20044;-81
2023/09/07 06:22:49;;;;;;;16.77;6.65;;;;;;;;;;5074545;28;20051;-80
2023/09/07 06:25:15;;;;;;;9.63;6.60;;;;;;;;;;5073650;28;20458;-80
2023/09/07 06:27:41;;;;;;;10.38;6.97;;;;;;;;;;5072784;28;20041;-82
2023/09/07 06:30:07;;;;;;;21.92;7.25;;;;;;;;;;5074376;28;20122;-80
2023/09/07 06:32:33;;;;;;;11.45;7.10;;;;;;;;;;5072843;28;20119;-81
2023/09/07 06:34:59;;;;;;;12.50;7.07;;;;;;;;;;5072279;28;20080;-81
2023/09/07 06:37:25;;;;;;;16.50;7.00;;;;;;;;;;5040204;28;20041;-81
2023/09/07 06:39:51;;;;;;;13.40;7.43;;;;;;;;;;5051106;28;20049;-80
2023/09/07 06:42:17;;;;;;;12.20;6.53;;;;;;;;;;5052265;28;20049;-81
2023/09/07 06:44:45;;;;;;;11.63;7.00;;;;;;;;;;5054846;28;20036;-81
2023/09/07 06:47:11;;;;;;;11.63;6.57;;;;;;;;;;5053069;28;20123;-80
2023/09/07 06:49:38;;;;;;;12.85;6.85;;;;;;;;;;5064533;28;20096;-82
2023/09/07 06:52:04;;;;;;;14.30;6.30;;;;;;;;;;5054316;28;20129;-81
2023/09/07 06:54:30;;;;;;;15.20;8.27;;;;;;;;;;5053857;28;20060;-81
2023/09/07 06:56:56;;;;;;;13.95;6.38;;;;;;;;;;5053185;28;20444;-80
2023/09/07 06:59:22;;;;;;;11.07;6.47;;;;;;;;;;5035990;28;20052;-81
2023/09/07 07:01:48;;;;;;;11.48;6.50;;;;;;;;;;5052705;28;20371;-80
2023/09/07 07:04:14;;;;;;;11.35;6.30;;;;;;;;;;5053758;28;20094;-80
2023/09/07 07:06:41;;;;;;;13.95;6.20;;;;;;;;;;5071530;28;20048;-80
2023/09/07 07:09:07;;;;;;;11.93;6.13;;;;;;;;;;5071703;28;20162;-79
2023/09/07 07:11:33;;;;;;;12.00;6.43;;;;;;;;;;5074068;28;20048;-80
2023/09/07 07:13:59;;;;;;;10.45;5.30;;;;;;;;;;5062248;28;20489;-80
2023/09/07 07:16:25;;;;;;;8.50;5.20;;;;;;;;;;5073366;28;20044;-80
2023/09/07 07:18:51;;;;;;;9.55;5.78;;;;;;;;;;5061914;28;20060;-80
2023/09/07 07:21:17;;;;;;;9.27;5.50;;;;;;;;;;5054355;28;20051;-80
2023/09/07 07:23:43;;;;;;;11.40;5.80;;;;;;;;;;5051506;28;20132;-80
2023/09/07 07:26:09;;;;;;;11.13;5.22;;;;;;;;;;5038737;28;20048;-80
2023/09/07 07:28:35;;;;;;;8.52;4.53;;;;;;;;;;5065920;28;20064;-80
2023/09/07 07:31:11;;;;;;;6.70;5.03;;;;;;;;;;5072841;28;20048;-80
2023/09/07 07:33:37;;;;;;;7.07;4.97;;;;;;;;;;5070282;28;20047;-81
2023/09/07 07:36:03;;;;;;;8.40;5.32;;;;;;;;;;5072358;28;20048;-80
2023/09/07 07:38:30;;;;;;;7.63;5.20;;;;;;;;;;5072726;28;20041;-80
2023/09/07 07:40:56;;;;;;;9.48;4.85;;;;;;;;;;5069835;28;20136;-80
2023/09/07 07:43:22;;;;;;;9.38;5.38;;;;;;;;;;5073039;28;20044;-78
2023/09/07 07:45:48;;;;;;;10.70;5.75;;;;;;;;;;5068403;28;20335;-80
2023/09/07 07:48:14;;;;;;;12.55;5.18;;;;;;;;;;5072607;28;20455;-80
2023/09/07 07:50:40;;;;;;;11.18;5.00;;;;;;;;;;5059308;28;20133;-81
2023/09/07 07:53:09;;;;;;;13.13;5.65;;;;;;;;;;5069865;28;20044;-79
2023/09/07 07:55:38;;;;;;;10.48;5.45;;;;;;;;;;5071147;28;20388;-79
2023/09/07 07:58:07;;;;;;;9.68;5.00;;;;;;;;;;5069905;28;20282;-79
2023/09/07 08:00:34;;;;;;;11.43;6.13;;;;;;;;;;5071747;28;20173;-79
2023/09/07 08:03:02;;;;;;;11.48;5.82;;;;;;;;;;5072518;28;20163;-79
2023/09/07 08:05:28;;;;;;;11.43;6.07;;;;;;;;;;5071275;28;20055;-80
2023/09/07 08:07:55;;;;;;;11.80;5.65;;;;;;;;;;5072732;28;20037;-79
2023/09/07 08:10:21;;;;;;;12.70;5.50;;;;;;;;;;5070629;28;20062;-79
2023/09/07 08:12:47;;;;;;;9.90;5.32;;;;;;;;;;5070592;28;20338;-77
2023/09/07 08:15:14;;;;;;;9.13;5.75;;;;;;;;;;5067959;28;20386;-78
2023/09/07 08:17:40;;;;;;;17.00;6.15;;;;;;;;;;5071549;28;20092;-78
2023/09/07 08:20:10;;;;;;;10.20;5.18;;;;;;;;;;5071328;28;20051;-78
2023/09/07 08:22:40;;;;;;;11.82;5.78;;;;;;;;;;5069714;28;20076;-78
2023/09/07 08:25:07;;;;;;;9.73;5.53;;;;;;;;;;5071025;28;20564;-78
2023/09/07 08:27:33;;;;;;;8.70;5.80;;;;;;;;;;5070256;28;20045;-78
2023/09/07 08:29:59;;;;;;;8.23;4.80;;;;;;;;;;5069397;28;20041;-78
2023/09/07 08:32:25;;;;;;;10.43;5.72;;;;;;;;;;5072377;28;20086;-78
2023/09/07 08:34:56;;;;;;;8.30;5.57;;;;;;;;;;5072236;28;20413;-78
2023/09/07 08:37:23;;;;;;;10.30;6.22;;;;;;;;;;5070890;28;20047;-79
2023/09/07 08:39:49;;;;;;;7.25;5.15;;;;;;;;;;5070865;28;20049;-78
2023/09/07 08:42:15;;;;;;;10.40;4.90;;;;;;;;;;5087516;28;20041;-78
2023/09/07 08:44:46;;;;;;;10.77;4.82;;;;;;;;;;5071870;28;20397;-77
2023/09/07 08:47:14;;;;;;;9.57;4.50;;;;;;;;;;5071037;28;20052;-77
2023/09/07 08:49:41;;;;;;;12.48;4.78;;;;;;;;;;5062023;28;20106;-77
2023/09/07 08:52:07;;;;;;;8.20;5.10;;;;;;;;;;5067213;28;20132;-77
2023/09/07 08:54:33;;;;;;;7.85;4.72;;;;;;;;;;5050083;28;20055;-78
2023/09/07 08:57:06;;;;;;;7.15;4.10;;;;;;;;;;5067978;28;20081;-79
2023/09/07 08:59:36;;;;;;;9.05;4.93;;;;;;;;;;5069739;28;20041;-78
2023/09/07 09:02:04;;;;;;;8.32;3.88;;;;;;;;;;5054746;28;20095;-79
2023/09/07 09:04:30;;;;;;;6.70;4.30;;;;;;;;;;5052835;28;20143;-79
2023/09/07 09:06:58;;;;;;;10.60;4.55;;;;;;;;;;5054535;28;20049;-79
2023/09/07 09:09:25;;;;;;;6.28;3.85;;;;;;;;;;5058969;28;20464;-78
2023/09/07 09:11:51;;;;;;;9.25;4.15;;;;;;;;;;5063380;28;20114;-79
2023/09/07 09:14:24;;;;;;;9.20;3.88;;;;;;;;;;5067520;28;20105;-78
2023/09/07 09:16:51;;;;;;;8.68;4.50;;;;;;;;;;5073535;28;20072;-79
2023/09/07 09:19:20;;;;;;;10.07;4.25;;;;;;;;;;5054749;28;20048;-80
2023/09/07 09:21:47;;;;;;;7.45;3.92;;;;;;;;;;5069151;28;20135;-81
2023/09/07 09:24:14;;;;;;;7.30;3.85;;;;;;;;;;5075013;28;20067;-79
2023/09/07 09:26:40;;;;;;;10.60;3.70;;;;;;;;;;5057323;28;20396;-80
2023/09/07 09:29:06;;;;;;;13.43;4.10;;;;;;;;;;5072706;28;20571;-79
2023/09/07 09:31:32;;;;;;;8.00;4.00;;;;;;;;;;5056252;28;20152;-79
2023/09/07 09:33:58;;;;;;;8.77;3.92;;;;;;;;;;5074180;28;20119;-80
2023/09/07 09:36:25;;;;;;;9.05;3.90;;;;;;;;;;5056437;28;20441;-80
2023/09/07 09:38:53;;;;;;;12.43;3.58;;;;;;;;;;5075541;28;20397;-80
2023/09/07 09:41:20;;;;;;;10.27;3.90;;;;;;;;;;5075533;28;20044;-80
2023/09/07 09:43:51;;;;;;;9.80;3.90;;;;;;;;;;5074273;28;20481;-80
2023/09/07 09:46:17;;;;;;;6.70;3.42;;;;;;;;;;5076056;28;20055;-81
2023/09/07 09:48:44;;;;;;;9.48;3.60;;;;;;;;;;5074884;28;20040;-81
2023/09/07 09:51:11;;;;;;;7.85;3.72;;;;;;;;;;5075345;28;20419;-80
2023/09/07 09:53:37;;;;;;;9.35;3.53;;;;;;;;;;5073746;28;20045;-81
2023/09/07 09:56:03;;;;;;;6.18;3.35;;;;;;;;;;5076049;28;20122;-81
2023/09/07 09:58:30;;;;;;;8.95;3.55;;;;;;;;;;5074889;28;20123;-80
2023/09/07 10:00:57;;;;;;;5.35;3.10;;;;;;;;;;5074425;28;20048;-81
2023/09/07 10:03:33;;;;;;;5.63;3.60;;;;;;;;;;5075949;28;20052;-80
2023/09/07 10:06:09;;;;;;;10.48;4.13;;;;;;;;;;5074983;28;20445;-81
2023/09/07 10:08:35;;;;;;;7.25;3.58;;;;;;;;;;5076100;28;20048;-81
2023/09/07 10:11:08;;;;;;;8.38;3.67;;;;;;;;;;5075001;28;20052;-81
2023/09/07 10:13:34;;;;;;;9.35;3.40;;;;;;;;;;5072502;28;20098;-81
2023/09/07 10:16:07;;;;;;;6.00;3.22;;;;;;;;;;5074106;28;20056;-82
2023/09/07 10:18:35;;;;;;;6.13;3.45;;;;;;;;;;5074501;28;20076;-82
2023/09/07 10:21:02;;;;;;;11.90;3.40;;;;;;;;;;5084432;28;20055;-79
2023/09/07 10:23:36;;;;;;;8.20;3.30;;;;;;;;;;5102742;28;20055;-78
2023/09/07 10:26:04;;;;;;;7.53;3.57;;;;;;;;;;5075581;28;20123;-80
2023/09/07 10:28:30;;;;;;;8.60;3.30;;;;;;;;;;5074727;28;20290;-81
2023/09/07 10:31:30;;;;;;;6.68;3.60;;;;;;;;;;5073416;28;20374;-80
2023/09/07 10:33:56;;;;;;;9.65;3.40;;;;;;;;;;5062232;28;20400;-80
2023/09/07 10:36:23;;;;;;;9.82;3.58;;;;;;;;;;5074194;28;20412;-80
2023/09/07 10:38:53;;;;;;;11.05;3.72;;;;;;;;;;5074349;28;20041;-80
2023/09/07 10:41:19;;;;;;;7.03;3.47;;;;;;;;;;5074761;28;20404;-80
2023/09/07 10:43:52;;;;;;;8.27;3.85;;;;;;;;;;5074215;28;20098;-80
2023/09/07 10:46:23;;;;;;;7.13;3.65;;;;;;;;;;5072567;28;20051;-80
2023/09/07 10:48:52;;;;;;;8.80;3.50;;;;;;;;;;5070647;28;20041;-80
2023/09/07 10:51:19;;;;;;;8.30;3.60;;;;;;;;;;5053965;28;20538;-86
2023/09/07 10:53:45;;;;;;;7.57;3.67;;;;;;;;;;5052037;28;20509;-84
2023/09/07 10:56:11;;;;;;;5.75;3.40;;;;;;;;;;5053436;28;20053;-84
2023/09/07 10:58:42;;;;;;;9.77;3.80;;;;;;;;;;5052106;28;20527;-85
2023/09/07 11:01:09;;;;;;;5.25;3.45;;;;;;;;;;5052233;28;20052;-85
2023/09/07 11:03:36;;;;;;;8.27;3.50;;;;;;;;;;5050804;28;20045;-84
2023/09/07 11:06:19;;;;;;;6.15;3.55;;;;;;;;;;5068280;28;20181;-83
2023/09/07 11:08:45;;;;;;;6.90;3.30;;;;;;;;;;5053167;28;20053;-85
2023/09/07 11:11:11;;;;;;;7.97;3.78;;;;;;;;;;5052060;28;20064;-82
2023/09/07 11:13:37;;;;;;;8.52;3.60;;;;;;;;;;5050798;28;20520;-82
2023/09/07 11:16:03;;;;;;;7.40;3.70;;;;;;;;;;5049210;28;20516;-80
2023/09/07 11:18:30;;;;;;;5.55;3.33;;;;;;;;;;5050800;28;20056;-82
2023/09/07 11:20:56;;;;;;;5.75;3.35;;;;;;;;;;5050314;28;20072;-81
2023/09/07 11:23:24;;;;;;;9.02;3.90;;;;;;;;;;5050723;28;20068;-81
2023/09/07 11:25:50;;;;;;;7.43;3.30;;;;;;;;;;5051166;28;20048;-81
2023/09/07 11:28:18;;;;;;;8.57;3.58;;;;;;;;;;5050153;28;20464;-82
2023/09/07 11:30:53;;;;;;;7.32;3.20;;;;;;;;;;5050894;28;20057;-82
2023/09/07 11:33:19;;;;;;;6.97;3.08;;;;;;;;;;5050699;28;20448;-81
2023/09/07 11:35:46;;;;;;;6.60;3.42;;;;;;;;;;5050710;28;20064;-84
2023/09/07 11:38:13;;;;;;;5.32;3.35;;;;;;;;;;5055376;28;20091;-84
2023/09/07 11:40:42;;;;;;;5.68;3.10;;;;;;;;;;5054480;28;20472;-84
2023/09/07 11:43:08;;;;;;;8.65;3.42;;;;;;;;;;5051970;28;20056;-84
2023/09/07 11:45:34;;;;;;;8.88;3.33;;;;;;;;;;5051164;28;20051;-84
2023/09/07 11:48:01;;;;;;;7.40;3.33;;;;;;;;;;5050736;28;20052;-84
2023/09/07 11:50:29;;;;;;;4.75;3.13;;;;;;;;;;5049204;28;20068;-83
2023/09/07 11:52:56;;;;;;;6.78;3.30;;;;;;;;;;5049058;28;20116;-84
2023/09/07 11:55:25;;;;;;;7.40;3.40;;;;;;;;;;5050212;28;20470;-84
2023/09/07 11:57:51;;;;;;;7.47;3.63;;;;;;;;;;5050664;28;20048;-85
2023/09/07 12:00:18;;;;;;;7.53;3.22;;;;;;;;;;5066532;28;20059;-83
2023/09/07 12:02:44;;;;;;;6.25;2.97;;;;;;;;;;5068921;28;20409;-83
2023/09/07 12:05:14;;;;;;;6.68;3.30;;;;;;;;;;5070624;28;20071;-84
2023/09/07 12:07:40;;;;;;;5.57;3.03;;;;;;;;;;5052520;28;20049;-84
2023/09/07 12:10:10;;;;;;;6.97;3.50;;;;;;;;;;5052087;28;20052;-81
2023/09/07 12:12:37;;;;;;;7.00;3.70;;;;;;;;;;5068822;28;20071;-81
2023/09/07 12:15:04;;;;;;;7.75;3.60;;;;;;;;;;5068224;28;20048;-81
2023/09/07 12:17:31;;;;;;;8.15;3.35;;;;;;;;;;5068578;28;20059;-81
2023/09/07 12:19:57;;;;;;;5.18;3.22;;;;;;;;;;5069809;28;20459;-81
2023/09/07 12:22:24;;;;;;;5.43;3.38;;;;;;;;;;5069507;28;20049;-83
2023/09/07 12:24:50;;;;;;;9.80;3.50;;;;;;;;;;5069482;28;20056;-82
2023/09/07 12:27:16;;;;;;;8.32;3.20;;;;;;;;;;5068434;28;20049;-83
2023/09/07 12:29:42;;;;;;;4.88;3.30;;;;;;;;;;5061705;28;20052;-82
2023/09/07 12:32:08;;;;;;;6.80;3.38;;;;;;;;;;5049726;28;20056;-81
2023/09/07 12:34:34;;;;;;;7.40;3.60;;;;;;;;;;5053189;28;20387;-83
2023/09/07 12:37:00;;;;;;;5.32;3.38;;;;;;;;;;5053905;28;20053;-82
2023/09/07 12:39:26;;;;;;;6.90;3.40;;;;;;;;;;5071392;28;20122;-82
2023/09/07 12:41:52;;;;;;;8.15;3.60;;;;;;;;;;5054024;28;20083;-82
2023/09/07 12:44:20;;;;;;;6.45;3.20;;;;;;;;;;5035721;28;20438;-80
2023/09/07 12:46:47;;;;;;;5.38;3.22;;;;;;;;;;5069076;28;20063;-80
2023/09/07 12:49:15;;;;;;;6.57;3.40;;;;;;;;;;5053668;28;20046;-82
2023/09/07 12:51:41;;;;;;;6.15;3.30;;;;;;;;;;5053762;28;20052;-82
2023/09/07 12:54:07;;;;;;;6.63;3.25;;;;;;;;;;5053378;28;20045;-82
2023/09/07 12:56:33;;;;;;;7.22;3.38;;;;;;;;;;5053148;28;20071;-81
2023/09/07 12:58:59;;;;;;;7.97;3.45;;;;;;;;;;5053316;28;20373;-83
2023/09/07 13:01:29;;;;;;;5.18;3.42;;;;;;;;;;5052979;28;20111;-83
2023/09/07 13:03:55;;;;;;;7.32;3.40;;;;;;;;;;5053014;28;20149;-82
2023/09/07 13:06:21;;;;;;;4.07;3.17;;;;;;;;;;5053699;28;20442;-82
2023/09/07 13:08:47;;;;;;;9.73;3.67;;;;;;;;;;5052982;28;20366;-82
2023/09/07 13:11:13;;;;;;;7.20;3.05;;;;;;;;;;5068598;28;20041;-82
2023/09/07 13:13:39;;;;;;;8.93;3.13;;;;;;;;;;5051673;28;20106;-83
2023/09/07 13:16:06;;;;;;;5.32;3.40;;;;;;;;;;5052355;28;20056;-82
2023/09/07 13:18:32;;;;;;;6.65;3.53;;;;;;;;;;5051783;28;20393;-82
2023/09/07 13:20:59;;;;;;;7.95;3.50;;;;;;;;;;5051133;28;20225;-81
2023/09/07 13:23:28;;;;;;;9.35;3.58;;;;;;;;;;5052452;28;20139;-81
2023/09/07 13:26:00;;;;;;;5.22;3.35;;;;;;;;;;5052606;28;20053;-81
2023/09/07 13:28:26;;;;;;;7.85;3.75;;;;;;;;;;5052610;28;20088;-81
2023/09/07 13:30:52;;;;;;;8.43;3.40;;;;;;;;;;5057970;28;20037;-82
2023/09/07 13:33:18;;;;;;;9.55;3.67;;;;;;;;;;5061400;28;20048;-82
2023/09/07 13:35:45;;;;;;;7.78;3.47;;;;;;;;;;5065413;28;20505;-81
2023/09/07 13:38:11;;;;;;;4.90;3.42;;;;;;;;;;5072397;28;20056;-81
2023/09/07 13:40:37;;;;;;;5.40;3.33;;;;;;;;;;5072654;28;20275;-81
2023/09/07 13:43:03;;;;;;;14.30;3.60;;;;;;;;;;5072241;28;20147;-80
2023/09/07 13:45:29;;;;;;;9.57;3.65;;;;;;;;;;5071479;28;20040;-81
2023/09/07 13:47:56;;;;;;;5.38;3.20;;;;;;;;;;5072735;28;20162;-81
2023/09/07 13:50:22;;;;;;;7.68;3.20;;;;;;;;;;5070983;28;20054;-81
2023/09/07 13:52:49;;;;;;;7.95;3.67;;;;;;;;;;5071340;28;20084;-81
2023/09/07 13:55:15;;;;;;;5.93;3.50;;;;;;;;;;5072388;28;20048;-81
2023/09/07 13:57:41;;;;;;;5.55;3.38;;;;;;;;;;5070268;28;20059;-82
2023/09/07 14:00:07;;;;;;;6.15;3.30;;;;;;;;;;5071183;28;20121;-82
2023/09/07 14:02:33;;;;;;;5.68;3.25;;;;;;;;;;5071923;28;20041;-81
2023/09/07 14:04:59;;;;;;;5.95;3.30;;;;;;;;;;5071612;28;20057;-82
2023/09/07 14:07:25;;;;;;;8.77;3.50;;;;;;;;;;5069942;28;20044;-82
2023/09/07 14:09:52;;;;;;;9.13;3.70;;;;;;;;;;5071329;28;20485;-83
2023/09/07 14:12:18;;;;;;;6.57;3.28;;;;;;;;;;5071635;28;20045;-83
2023/09/07 14:14:44;;;;;;;6.30;3.30;;;;;;;;;;5071554;28;20080;-83
2023/09/07 14:17:10;;;;;;;6.53;3.08;;;;;;;;;;5071640;28;20123;-82
2023/09/07 14:19:36;;;;;;;5.35;3.38;;;;;;;;;;5070326;28;20048;-82
2023/09/07 14:22:02;;;;;;;6.60;3.45;;;;;;;;;;5070065;28;20055;-80
2023/09/07 14:24:28;;;;;;;6.53;3.40;;;;;;;;;;5070871;28;20113;-81
2023/09/07 14:26:55;;;;;;;5.75;3.38;;;;;;;;;;5087066;28;20452;-82
2023/09/07 14:29:21;;;;;;;6.28;3.03;;;;;;;;;;5071159;28;20393;-82
2023/09/07 14:31:47;;;;;;;6.15;3.33;;;;;;;;;;5071222;28;20045;-82
2023/09/07 14:34:13;;;;;;;5.32;3.28;;;;;;;;;;5070902;28;20052;-81
2023/09/07 14:36:42;;;;;;;6.55;3.25;;;;;;;;;;5071569;28;20105;-80
2023/09/07 14:39:10;;;;;;;8.63;3.33;;;;;;;;;;5071291;28;20044;-81